Terminal Aerodrome Forecast
Issued by NWS

Home | Current Version | Previous Version | Text Only | Print | Product List | Glossary On
Versions: 1 2 3 4 5 6 7 8 9 10 11 12 13 14 15 16 17 18 19 20 21 22 23 24 25 26 27 28 29
000
FTUS43 KDMX 280520
TAFMCW
TAF
KMCW 280520Z 2806/2906 16010KT P6SM VCSH SCT050 OVC150
      TEMPO 2806/2807 5SM -SHRA BKN040
     FM280700 15010KT 3SM -SHRA BKN030
      TEMPO 2807/2810 2SM TSRA BR BKN020CB
     FM281100 11012KT 2SM -TSRA BR BKN020CB
     FM281500 11008KT 4SM -SHRA BKN015
     FM281800 11008KT 2SM SHRA BR OVC010
      TEMPO 2819/2821 2SM TSRA OVC010CB
     FM282300 06008KT P6SM VCSH OVC025
     FM290300 03008KT 2SM BR OVC015=

USA.gov is the U.S. government's official web portal to all federal, state and local government web resources and services.